createdAt,value
2023-04-09T00:02:14.784Z,9.69
2023-04-09T00:04:41.471Z,9.69
2023-04-09T00:07:08.286Z,9.69
2023-04-09T00:09:34.976Z,9.63
2023-04-09T00:12:02.088Z,9.56
2023-04-09T00:14:29.096Z,9.63
2023-04-09T00:16:56.072Z,9.63
2023-04-09T00:19:22.718Z,9.69
2023-04-09T00:21:49.401Z,9.63
2023-04-09T00:24:16.017Z,9.63
2023-04-09T00:26:42.587Z,9.63
2023-04-09T00:29:09.254Z,9.63
2023-04-09T00:31:35.973Z,9.63
2023-04-09T00:34:02.655Z,9.56
2023-04-09T00:36:29.273Z,9.63
2023-04-09T00:38:56.067Z,9.56
2023-04-09T00:41:22.716Z,9.63
2023-04-09T00:43:49.316Z,9.63
2023-04-09T00:46:17.709Z,9.56
2023-04-09T00:48:44.557Z,9.63
2023-04-09T00:51:11.251Z,9.63
2023-04-09T00:53:38.070Z,9.56
2023-04-09T00:56:05.733Z,9.56
2023-04-09T00:58:32.398Z,9.56
2023-04-09T01:00:59.190Z,9.63
2023-04-09T01:03:26.174Z,9.63
2023-04-09T01:06:12.398Z,9.50
2023-04-09T01:08:46.370Z,9.50
2023-04-09T01:11:34.444Z,9.56
2023-04-09T01:14:03.855Z,9.56
2023-04-09T01:16:34.185Z,9.56
2023-04-09T01:19:11.205Z,9.50
2023-04-09T01:21:40.305Z,9.56
2023-04-09T01:24:33.438Z,9.56
2023-04-09T01:27:08.102Z,9.50
2023-04-09T01:29:41.668Z,9.56
2023-04-09T01:32:10.586Z,9.50
2023-04-09T01:34:38.961Z,9.50
2023-04-09T01:37:08.520Z,9.50
2023-04-09T01:39:38.461Z,9.56
2023-04-09T01:42:11.006Z,9.56
2023-04-09T01:44:40.144Z,9.50
2023-04-09T01:47:08.280Z,9.63
2023-04-09T01:49:36.078Z,9.56
2023-04-09T01:52:03.255Z,9.50
2023-04-09T01:54:29.868Z,9.44
2023-04-09T01:56:57.808Z,9.44
2023-04-09T01:59:24.613Z,9.44
2023-04-09T02:02:08.015Z,9.44
2023-04-09T02:04:40.339Z,9.44
2023-04-09T02:07:14.831Z,9.50
2023-04-09T02:09:44.450Z,9.50
2023-04-09T02:12:16.452Z,9.56
2023-04-09T02:14:46.792Z,9.56
2023-04-09T02:17:13.731Z,9.56
2023-04-09T02:19:42.046Z,9.56
2023-04-09T02:22:10.197Z,9.56
2023-04-09T02:24:36.868Z,9.56
2023-04-09T02:27:04.030Z,9.44
2023-04-09T02:29:31.294Z,9.56
2023-04-09T02:31:58.168Z,9.50
2023-04-09T02:34:24.860Z,9.50
2023-04-09T02:36:51.472Z,9.56
2023-04-09T02:39:18.437Z,9.50
2023-04-09T02:41:45.115Z,9.44
2023-04-09T02:44:11.720Z,9.50
2023-04-09T02:46:39.515Z,9.50
2023-04-09T02:49:06.225Z,9.50
2023-04-09T02:51:35.671Z,9.50
2023-04-09T02:54:03.181Z,9.50
2023-04-09T02:56:29.848Z,9.56
2023-04-09T02:58:56.479Z,9.56
2023-04-09T03:01:23.286Z,9.63
2023-04-09T03:03:50.396Z,9.63
2023-04-09T03:06:18.541Z,9.56
2023-04-09T03:08:45.791Z,9.63
2023-04-09T03:11:12.454Z,9.56
2023-04-09T03:13:39.110Z,9.63
2023-04-09T03:16:06.160Z,9.63
2023-04-09T03:18:32.855Z,9.50
2023-04-09T03:20:59.442Z,9.50
2023-04-09T03:23:26.066Z,9.56
2023-04-09T03:26:04.006Z,9.50
2023-04-09T03:28:31.091Z,9.56
2023-04-09T03:30:57.917Z,9.50
2023-04-09T03:33:25.733Z,9.50
2023-04-09T03:35:52.686Z,9.50
2023-04-09T03:38:19.743Z,9.50
2023-04-09T03:40:46.717Z,9.50
2023-04-09T03:43:13.416Z,9.44
2023-04-09T03:45:40.006Z,9.50
2023-04-09T03:48:06.678Z,9.50
2023-04-09T03:50:39.470Z,9.50
2023-04-09T03:53:06.123Z,9.44
2023-04-09T03:55:32.795Z,9.44
2023-04-09T03:57:59.548Z,9.44
2023-04-09T04:00:26.171Z,9.38
2023-04-09T04:02:53.046Z,9.38
2023-04-09T04:05:22.382Z,9.38
2023-04-09T04:07:49.006Z,9.44
2023-04-09T04:10:15.741Z,9.44
2023-04-09T04:12:42.391Z,9.44
2023-04-09T04:15:09.441Z,9.44
2023-04-09T04:17:36.061Z,9.44
2023-04-09T04:20:03.088Z,9.44
2023-04-09T04:22:29.704Z,9.44
2023-04-09T04:24:56.349Z,9.44
2023-04-09T04:27:22.950Z,9.38
2023-04-09T04:29:49.637Z,9.38
2023-04-09T04:32:16.205Z,9.25
2023-04-09T04:34:42.861Z,9.31
2023-04-09T04:37:09.425Z,9.31
2023-04-09T04:39:36.020Z,9.25
2023-04-09T04:42:02.574Z,9.31
2023-04-09T04:44:29.305Z,9.31
2023-04-09T04:46:55.946Z,9.38
2023-04-09T04:49:22.590Z,9.31
2023-04-09T04:51:49.201Z,9.31
2023-04-09T04:54:15.854Z,9.31
2023-04-09T04:56:42.435Z,9.31
2023-04-09T04:59:08.984Z,9.38
2023-04-09T05:01:35.665Z,9.31
2023-04-09T05:04:03.252Z,9.25
2023-04-09T05:06:30.058Z,9.31
2023-04-09T05:08:58.104Z,9.19
2023-04-09T05:11:25.478Z,9.25
2023-04-09T05:13:52.052Z,9.25
2023-04-09T05:16:22.034Z,9.19
2023-04-09T05:18:48.678Z,9.13
2023-04-09T05:21:15.401Z,9.19
2023-04-09T05:23:42.730Z,9.25
2023-04-09T05:26:09.316Z,9.25
2023-04-09T05:28:36.405Z,9.19
2023-04-09T05:31:03.054Z,9.25
2023-04-09T05:33:29.767Z,9.19
2023-04-09T05:35:56.414Z,9.25
2023-04-09T05:38:23.047Z,9.25
2023-04-09T05:40:49.697Z,9.19
2023-04-09T05:43:16.487Z,9.19
2023-04-09T05:45:43.271Z,9.25
2023-04-09T05:48:10.008Z,9.25
2023-04-09T05:50:51.056Z,9.19
2023-04-09T05:53:21.609Z,9.19
2023-04-09T05:55:51.329Z,9.19
2023-04-09T05:58:21.615Z,9.19
2023-04-09T06:00:48.306Z,9.25
2023-04-09T06:03:15.023Z,9.25
2023-04-09T06:05:41.737Z,9.25
2023-04-09T06:08:08.344Z,9.25
2023-04-09T06:10:34.997Z,9.13
2023-04-09T06:13:01.585Z,9.13
2023-04-09T06:15:28.273Z,9.19
2023-04-09T06:17:55.986Z,9.25
2023-04-09T06:20:24.104Z,9.25
2023-04-09T06:22:50.705Z,9.31
2023-04-09T06:25:17.364Z,9.25
2023-04-09T06:27:44.211Z,9.31
2023-04-09T06:30:11.486Z,9.38
2023-04-09T06:32:51.109Z,9.38
2023-04-09T06:35:20.955Z,9.44
2023-04-09T06:37:47.549Z,9.56
2023-04-09T06:40:14.765Z,9.50
2023-04-09T06:42:41.461Z,9.44
2023-04-09T06:45:08.863Z,9.25
2023-04-09T06:47:36.204Z,9.50
2023-04-09T06:50:03.253Z,9.56
2023-04-09T06:52:29.934Z,9.63
2023-04-09T06:54:56.499Z,9.63
2023-04-09T06:57:23.144Z,9.63
2023-04-09T06:59:49.753Z,9.63
2023-04-09T07:02:16.796Z,9.56
2023-04-09T07:04:43.685Z,9.63
2023-04-09T07:07:10.573Z,9.50
2023-04-09T07:09:37.230Z,9.69
2023-04-09T07:12:03.829Z,9.75
2023-04-09T07:14:30.589Z,10.00
2023-04-09T07:16:57.263Z,10.13
2023-04-09T07:19:23.903Z,10.13
2023-04-09T07:21:50.994Z,10.31
2023-04-09T07:24:17.596Z,10.50
2023-04-09T07:26:44.230Z,10.63
2023-04-09T07:29:11.007Z,10.63
2023-04-09T07:31:37.683Z,10.69
2023-04-09T07:34:04.509Z,10.81
2023-04-09T07:36:31.839Z,10.88
2023-04-09T07:38:58.566Z,10.50
2023-04-09T07:41:25.235Z,10.56
2023-04-09T07:43:52.019Z,10.69
2023-04-09T07:46:20.780Z,10.56
2023-04-09T07:48:48.487Z,11.13
2023-04-09T07:51:15.316Z,11.44
2023-04-09T07:53:41.988Z,11.25
2023-04-09T07:56:08.585Z,11.56
2023-04-09T07:58:36.219Z,12.19
2023-04-09T08:01:02.987Z,12.75
2023-04-09T08:03:29.855Z,12.88
2023-04-09T08:05:56.793Z,12.88
2023-04-09T08:08:23.475Z,12.88
2023-04-09T08:10:50.644Z,13.31
2023-04-09T08:13:17.249Z,13.19
2023-04-09T08:15:43.825Z,13.56
2023-04-09T08:18:10.449Z,13.31
2023-04-09T08:20:37.107Z,13.25
2023-04-09T08:23:03.758Z,13.19
2023-04-09T08:25:30.650Z,13.06
2023-04-09T08:27:58.081Z,12.94
2023-04-09T08:30:24.755Z,13.31
2023-04-09T08:32:51.383Z,13.56
2023-04-09T08:35:18.043Z,13.44
2023-04-09T08:37:44.680Z,13.38
2023-04-09T08:40:11.970Z,13.56
2023-04-09T08:42:46.460Z,14.19
2023-04-09T08:45:13.922Z,14.06
2023-04-09T08:47:45.493Z,14.38
2023-04-09T08:50:12.122Z,13.63
2023-04-09T08:52:40.272Z,13.50
2023-04-09T08:55:08.354Z,13.75
2023-04-09T08:57:39.189Z,14.19
2023-04-09T09:00:06.934Z,14.56
2023-04-09T09:02:33.684Z,13.94
2023-04-09T09:05:00.965Z,14.31
2023-04-09T09:07:29.664Z,13.50
2023-04-09T09:09:59.444Z,13.44
2023-04-09T09:12:31.105Z,13.25
2023-04-09T09:14:58.129Z,13.56
2023-04-09T09:17:24.875Z,14.50
2023-04-09T09:19:51.760Z,14.88
2023-04-09T09:22:18.403Z,14.81
2023-04-09T09:24:50.552Z,14.06
2023-04-09T09:27:36.633Z,13.75
2023-04-09T09:30:05.721Z,13.94
2023-04-09T09:32:33.553Z,14.25
2023-04-09T09:35:01.972Z,13.25
2023-04-09T09:37:29.803Z,13.38
2023-04-09T09:39:56.949Z,14.13
2023-04-09T09:42:23.845Z,13.88
2023-04-09T09:44:51.545Z,14.13
2023-04-09T09:47:22.331Z,14.63
2023-04-09T09:49:52.272Z,13.94
2023-04-09T09:52:26.177Z,14.44
2023-04-09T09:54:54.925Z,15.94
2023-04-09T09:57:26.149Z,16.00
2023-04-09T10:00:04.251Z,16.13
2023-04-09T10:02:40.677Z,15.06
2023-04-09T10:05:08.947Z,16.69
2023-04-09T10:07:37.356Z,16.69
2023-04-09T10:10:06.554Z,16.81
2023-04-09T10:12:34.722Z,17.06
2023-04-09T10:15:04.678Z,18.00
2023-04-09T10:17:32.451Z,17.38
2023-04-09T10:20:12.731Z,16.88
2023-04-09T10:22:40.110Z,17.25
2023-04-09T10:25:07.449Z,17.13
2023-04-09T10:27:34.084Z,17.56
2023-04-09T10:30:01.754Z,18.19
2023-04-09T10:32:36.190Z,17.56
2023-04-09T10:35:04.219Z,18.31
2023-04-09T10:37:30.981Z,18.13
2023-04-09T10:39:58.664Z,18.13
2023-04-09T10:42:37.128Z,16.50
2023-04-09T10:45:14.880Z,16.69
2023-04-09T10:47:43.784Z,16.44
2023-04-09T10:50:17.108Z,16.94
2023-04-09T10:52:44.371Z,16.75
2023-04-09T10:55:49.348Z,17.81
2023-04-09T10:58:16.104Z,17.31
2023-04-09T11:00:45.198Z,17.38
2023-04-09T11:03:12.115Z,15.94
2023-04-09T11:05:40.521Z,16.31
2023-04-09T11:08:12.255Z,16.38
2023-04-09T11:10:42.050Z,15.88
2023-04-09T11:13:15.861Z,17.19
2023-04-09T11:15:43.480Z,17.88
2023-04-09T11:18:14.715Z,16.56
2023-04-09T11:20:41.400Z,17.63
2023-04-09T11:23:08.028Z,17.13
2023-04-09T11:25:35.641Z,18.75
2023-04-09T11:28:08.046Z,18.88
2023-04-09T11:30:37.434Z,19.13
2023-04-09T11:33:04.268Z,20.38
2023-04-09T11:35:35.206Z,20.69
2023-04-09T11:38:06.708Z,19.50
2023-04-09T11:40:33.460Z,19.19
2023-04-09T11:43:01.016Z,17.31
2023-04-09T11:45:30.343Z,16.00
2023-04-09T11:47:57.865Z,17.94
2023-04-09T11:50:25.245Z,19.25
2023-04-09T11:52:52.487Z,19.75
2023-04-09T11:55:29.667Z,17.69
2023-04-09T11:58:02.977Z,17.25
2023-04-09T12:00:29.794Z,17.19
2023-04-09T12:03:03.004Z,17.69
2023-04-09T12:05:32.329Z,18.94
2023-04-09T12:08:01.248Z,19.81
2023-04-09T12:10:32.678Z,19.06
2023-04-09T12:13:07.428Z,20.25
2023-04-09T12:15:36.822Z,19.25
2023-04-09T12:18:04.207Z,21.06
2023-04-09T12:20:36.665Z,21.13
2023-04-09T12:23:04.886Z,19.63
2023-04-09T12:25:36.708Z,18.94
2023-04-09T12:28:07.564Z,18.69
2023-04-09T12:30:35.551Z,18.75
2023-04-09T12:33:04.133Z,18.19
2023-04-09T12:35:31.081Z,18.31
2023-04-09T12:37:59.407Z,18.88
2023-04-09T12:40:27.023Z,18.50
2023-04-09T12:42:54.131Z,18.94
2023-04-09T12:45:21.354Z,19.50
2023-04-09T12:47:48.487Z,18.19
2023-04-09T12:50:16.260Z,17.75
2023-04-09T12:52:44.213Z,18.81
2023-04-09T12:55:12.830Z,18.44
2023-04-09T12:57:42.139Z,20.00
2023-04-09T13:00:09.455Z,19.00
2023-04-09T13:02:36.960Z,19.31
2023-04-09T13:05:04.490Z,19.13
2023-04-09T13:07:31.322Z,19.69
2023-04-09T13:09:58.418Z,20.00
2023-04-09T13:12:25.486Z,18.75
2023-04-09T13:14:54.363Z,19.94
2023-04-09T13:17:21.128Z,21.13
2023-04-09T13:19:47.971Z,17.56
2023-04-09T13:22:14.980Z,17.69
2023-04-09T13:24:43.113Z,19.06
2023-04-09T13:27:11.129Z,19.38
2023-04-09T13:29:38.369Z,19.75
2023-04-09T13:32:07.445Z,20.88
2023-04-09T13:34:35.294Z,20.06
2023-04-09T13:37:03.261Z,19.69
2023-04-09T13:39:30.079Z,18.31
2023-04-09T13:41:56.960Z,19.94
2023-04-09T13:44:25.103Z,21.31
2023-04-09T13:46:51.919Z,22.44
2023-04-09T13:49:18.755Z,23.50
2023-04-09T13:51:45.656Z,23.25
2023-04-09T13:54:12.453Z,22.31
2023-04-09T13:56:39.636Z,21.44
2023-04-09T13:59:06.553Z,19.69
2023-04-09T14:01:34.394Z,20.56
2023-04-09T14:04:01.274Z,21.75
2023-04-09T14:06:28.044Z,22.13
2023-04-09T14:08:55.292Z,19.63
2023-04-09T14:11:22.093Z,20.44
2023-04-09T14:13:48.737Z,20.00
2023-04-09T14:16:15.618Z,18.94
2023-04-09T14:18:42.303Z,19.44
2023-04-09T14:21:10.390Z,19.81
2023-04-09T14:23:38.690Z,19.00
2023-04-09T14:26:06.587Z,19.69
2023-04-09T14:28:33.393Z,19.38
2023-04-09T14:31:00.263Z,19.44
2023-04-09T14:33:27.287Z,19.44
2023-04-09T14:35:53.937Z,20.94
2023-04-09T14:38:20.762Z,21.50
2023-04-09T14:40:47.449Z,18.75
2023-04-09T14:43:14.121Z,19.44
2023-04-09T14:45:41.027Z,19.19
2023-04-09T14:48:08.060Z,20.06
2023-04-09T14:50:36.618Z,19.81
2023-04-09T14:53:04.153Z,19.50
2023-04-09T14:55:30.886Z,19.56
2023-04-09T14:57:59.599Z,20.31
2023-04-09T15:00:26.587Z,20.44
2023-04-09T15:02:53.396Z,19.56
2023-04-09T15:05:20.242Z,18.88
2023-04-09T15:07:46.949Z,18.94
2023-04-09T15:10:13.841Z,18.56
2023-04-09T15:12:40.674Z,19.50
2023-04-09T15:15:08.281Z,18.50
2023-04-09T15:17:35.801Z,18.25
2023-04-09T15:20:04.088Z,18.75
2023-04-09T15:22:30.904Z,18.56
2023-04-09T15:24:57.646Z,18.38
2023-04-09T15:27:24.418Z,18.19
2023-04-09T15:29:51.815Z,18.63
2023-04-09T15:32:19.112Z,18.63
2023-04-09T15:34:45.917Z,18.25
2023-04-09T15:37:12.616Z,17.69
2023-04-09T15:39:39.312Z,17.88
2023-04-09T15:42:07.884Z,17.63
2023-04-09T15:44:36.249Z,18.44
2023-04-09T15:47:03.039Z,18.50
2023-04-09T15:49:29.666Z,18.13
2023-04-09T15:51:56.267Z,18.06
2023-04-09T15:54:22.833Z,18.25
2023-04-09T15:56:49.888Z,17.56
2023-04-09T15:59:16.553Z,17.75
2023-04-09T16:01:43.446Z,17.00
2023-04-09T16:04:10.589Z,17.13
2023-04-09T16:06:40.316Z,17.06
2023-04-09T16:09:06.998Z,17.19
2023-04-09T16:11:35.887Z,16.94
2023-04-09T16:14:02.593Z,17.00
2023-04-09T16:16:29.490Z,17.00
2023-04-09T16:18:56.236Z,16.88
2023-04-09T16:21:22.873Z,16.25
2023-04-09T16:23:49.471Z,16.69
2023-04-09T16:26:16.055Z,17.06
2023-04-09T16:28:42.683Z,16.13
2023-04-09T16:31:09.324Z,15.56
2023-04-09T16:33:36.025Z,15.44
2023-04-09T16:36:02.736Z,15.38
2023-04-09T16:38:30.996Z,15.50
2023-04-09T16:40:57.686Z,15.44
2023-04-09T16:43:25.041Z,14.94
2023-04-09T16:45:52.185Z,15.25
2023-04-09T16:48:19.049Z,15.44
2023-04-09T16:50:45.847Z,15.50
2023-04-09T16:53:12.628Z,15.38
2023-04-09T16:55:39.271Z,15.69
2023-04-09T16:58:05.883Z,15.19
2023-04-09T17:00:32.469Z,15.63
2023-04-09T17:02:59.198Z,15.63
2023-04-09T17:05:26.249Z,15.63
2023-04-09T17:07:53.633Z,15.75
2023-04-09T17:10:20.798Z,15.44
2023-04-09T17:12:48.034Z,15.25
2023-04-09T17:15:14.798Z,15.31
2023-04-09T17:17:41.556Z,15.44
2023-04-09T17:20:08.614Z,15.00
2023-04-09T17:22:35.661Z,15.13
2023-04-09T17:25:02.532Z,14.94
2023-04-09T17:27:29.264Z,15.00
2023-04-09T17:29:56.441Z,14.94
2023-04-09T17:32:23.150Z,14.88
2023-04-09T17:34:49.835Z,14.69
2023-04-09T17:37:16.921Z,14.56
2023-04-09T17:39:43.545Z,14.56
2023-04-09T17:42:14.138Z,14.63
2023-04-09T17:44:42.089Z,14.50
2023-04-09T17:47:08.990Z,14.44
2023-04-09T17:49:37.725Z,14.19
2023-04-09T17:52:05.159Z,14.63
2023-04-09T17:54:33.837Z,15.00
2023-04-09T17:57:01.621Z,14.75
2023-04-09T17:59:28.963Z,14.81
2023-04-09T18:01:56.743Z,14.44
2023-04-09T18:04:24.406Z,14.38
2023-04-09T18:06:51.692Z,14.69
2023-04-09T18:09:18.875Z,14.75
2023-04-09T18:11:46.368Z,14.81
2023-04-09T18:14:13.159Z,14.94
2023-04-09T18:16:40.105Z,14.94
2023-04-09T18:19:07.996Z,15.06
2023-04-09T18:21:37.714Z,14.94
2023-04-09T18:24:06.004Z,14.94
2023-04-09T18:26:33.847Z,14.81
2023-04-09T18:31:43.033Z,14.69
2023-04-09T18:34:09.740Z,14.69
2023-04-09T18:36:36.377Z,14.56
2023-04-09T18:39:04.866Z,14.56
2023-04-09T18:41:31.533Z,14.63
2023-04-09T18:43:58.184Z,14.44
2023-04-09T18:46:24.853Z,14.38
2023-04-09T18:48:51.944Z,14.00
2023-04-09T18:51:20.647Z,14.06
2023-04-09T18:53:52.681Z,13.88
2023-04-09T18:56:20.358Z,13.63
2023-04-09T18:58:48.568Z,13.88
2023-04-09T19:01:17.287Z,13.81
2023-04-09T19:03:44.930Z,13.88
2023-04-09T19:06:18.039Z,13.69
2023-04-09T19:08:45.466Z,13.75
2023-04-09T19:11:12.658Z,14.00
2023-04-09T19:13:39.347Z,13.75
2023-04-09T19:16:09.292Z,13.69
2023-04-09T19:18:37.675Z,13.69
2023-04-09T19:21:05.703Z,13.63
2023-04-09T19:23:34.282Z,13.31
2023-04-09T19:26:02.376Z,13.56
2023-04-09T19:28:31.990Z,13.31
2023-04-09T19:31:06.338Z,13.38
2023-04-09T19:33:32.985Z,13.19
2023-04-09T19:35:59.708Z,13.00
2023-04-09T19:38:26.377Z,13.13
2023-04-09T19:40:52.956Z,12.94
2023-04-09T19:43:19.578Z,13.00
2023-04-09T19:45:46.256Z,13.00
2023-04-09T19:48:13.000Z,12.88
2023-04-09T19:50:43.584Z,12.94
2023-04-09T19:53:10.870Z,13.06
2023-04-09T19:55:37.762Z,12.63
2023-04-09T19:58:05.489Z,12.69
2023-04-09T20:00:35.545Z,12.81
2023-04-09T20:03:03.201Z,12.50
2023-04-09T20:05:30.050Z,12.44
2023-04-09T20:07:56.752Z,12.56
2023-04-09T20:10:23.512Z,12.44
2023-04-09T20:12:51.220Z,12.44
2023-04-09T20:15:21.303Z,12.38
2023-04-09T20:17:48.918Z,12.25
2023-04-09T20:20:20.149Z,12.25
2023-04-09T20:22:55.709Z,11.94
2023-04-09T20:25:24.563Z,11.81
2023-04-09T20:27:54.681Z,12.00
2023-04-09T20:30:21.565Z,12.13
2023-04-09T20:32:49.008Z,12.00
2023-04-09T20:35:16.005Z,12.31
2023-04-09T20:37:42.699Z,12.31
2023-04-09T20:40:09.875Z,12.25
2023-04-09T20:42:36.550Z,12.19
2023-04-09T20:45:03.469Z,12.06
2023-04-09T20:47:30.375Z,12.13
2023-04-09T20:49:59.836Z,11.94
2023-04-09T20:52:30.425Z,11.94
2023-04-09T20:54:57.511Z,11.88
2023-04-09T20:57:24.863Z,11.81
2023-04-09T20:59:52.856Z,11.69
2023-04-09T21:02:21.110Z,11.56
2023-04-09T21:04:47.882Z,11.38
2023-04-09T21:07:14.655Z,11.38
2023-04-09T21:09:41.518Z,11.38
2023-04-09T21:12:08.214Z,11.63
2023-04-09T21:14:34.861Z,11.63
2023-04-09T21:17:01.599Z,11.50
2023-04-09T21:19:28.251Z,11.44
2023-04-09T21:21:55.045Z,11.56
2023-04-09T21:24:21.746Z,11.75
2023-04-09T21:26:50.992Z,11.69
2023-04-09T21:29:20.291Z,11.56
2023-04-09T21:31:47.957Z,11.75
2023-04-09T21:34:14.665Z,11.81
2023-04-09T21:36:41.350Z,11.88
2023-04-09T21:39:07.939Z,11.81
2023-04-09T21:41:34.867Z,11.88
2023-04-09T21:44:07.826Z,12.00
2023-04-09T21:46:36.728Z,12.00
2023-04-09T21:49:03.966Z,11.69
2023-04-09T21:51:31.337Z,11.75
2023-04-09T21:54:06.263Z,11.88
2023-04-09T21:56:33.697Z,11.38
2023-04-09T21:59:01.217Z,11.44
2023-04-09T22:01:31.101Z,11.56
2023-04-09T22:03:59.111Z,11.56
2023-04-09T22:06:29.499Z,11.38
2023-04-09T22:08:58.040Z,11.13
2023-04-09T22:11:27.567Z,11.19
2023-04-09T22:13:56.707Z,11.00
2023-04-09T22:16:24.210Z,10.88
2023-04-09T22:18:51.490Z,10.75
2023-04-09T22:21:18.424Z,10.81
2023-04-09T22:23:45.322Z,10.75
2023-04-09T22:26:11.964Z,10.88
2023-04-09T22:28:38.648Z,11.00
2023-04-09T22:31:06.019Z,11.00
2023-04-09T22:33:32.865Z,10.94
2023-04-09T22:35:59.844Z,10.94
2023-04-09T22:38:26.873Z,10.94
2023-04-09T22:40:53.514Z,10.81
2023-04-09T22:43:20.313Z,10.50
2023-04-09T22:45:51.269Z,10.38
2023-04-09T22:48:18.781Z,10.13
2023-04-09T22:50:45.948Z,10.13
2023-04-09T22:53:18.281Z,9.94
2023-04-09T22:55:47.409Z,9.75
2023-04-09T22:58:14.554Z,9.88
2023-04-09T23:00:41.235Z,10.13
2023-04-09T23:03:08.052Z,10.13
2023-04-09T23:05:35.368Z,10.25
2023-04-09T23:08:02.232Z,10.44
2023-04-09T23:10:28.789Z,10.25
2023-04-09T23:12:55.416Z,10.06
2023-04-09T23:15:22.020Z,9.88
2023-04-09T23:17:51.076Z,9.44
2023-04-09T23:20:17.780Z,9.50
2023-04-09T23:22:47.446Z,9.25
2023-04-09T23:25:15.454Z,9.56
2023-04-09T23:27:42.789Z,9.69
2023-04-09T23:30:10.240Z,9.75
2023-04-09T23:32:37.113Z,9.81
2023-04-09T23:35:04.288Z,9.44
2023-04-09T23:37:31.104Z,9.44
2023-04-09T23:39:57.886Z,9.25
2023-04-09T23:42:24.504Z,9.38
2023-04-09T23:44:51.300Z,9.63
2023-04-09T23:47:18.083Z,9.50
2023-04-09T23:49:44.957Z,9.56
2023-04-09T23:52:11.570Z,9.44
2023-04-09T23:54:38.165Z,9.44
2023-04-09T23:57:04.787Z,9.31
2023-04-09T23:59:33.913Z,9.38
